Terminal Aerodrome Forecast
Issued by NWS

Home | Current Version | Previous Version | Text Only | Print | Product List | Glossary Off
Versions: 1 2 3 4 5 6 7 8 9 10 11 12 13 14 15 16 17 18 19 20

000
FTUS43 KMPX 242038 AAA
TAFRNH
TAF AMD
KRNH 242038Z 2421/2518 25009KT P6SM SCT030
     FM250000 15003KT P6SM BKN250
     FM251500 12008G16KT 5SM -SHRA OVC050=

USA.gov is the U.S. government's official web portal to all federal, state and local government web resources and services.